sensor_id;sensor_type;location;lat;lon;timestamp;pressure;altitude;pressure_sealevel;temperature;humidity
49063;BME280;34876;51.464;-0.150;2023-11-19T00:01:16;100755.99;;;18.67;50.36
49063;BME280;34876;51.464;-0.150;2023-11-19T00:03:46;100756.08;;;18.74;50.04
49063;BME280;34876;51.464;-0.150;2023-11-19T00:06:14;100752.39;;;18.76;49.95
49063;BME280;34876;51.464;-0.150;2023-11-19T00:08:43;100744.86;;;18.77;49.94
49063;BME280;34876;51.464;-0.150;2023-11-19T00:11:13;100739.90;;;18.78;49.83
49063;BME280;34876;51.464;-0.150;2023-11-19T00:13:42;100737.86;;;18.79;49.73
49063;BME280;34876;51.464;-0.150;2023-11-19T00:16:11;100734.14;;;18.70;50.01
49063;BME280;34876;51.464;-0.150;2023-11-19T00:18:41;100736.18;;;18.80;49.70
49063;BME280;34876;51.464;-0.150;2023-11-19T00:21:10;100738.83;;;18.77;49.71
49063;BME280;34876;51.464;-0.150;2023-11-19T00:23:40;100735.35;;;18.62;49.75
49063;BME280;34876;51.464;-0.150;2023-11-19T00:26:09;100739.31;;;18.51;49.86
49063;BME280;34876;51.464;-0.150;2023-11-19T00:28:40;100743.38;;;18.51;50.49
49063;BME280;34876;51.464;-0.150;2023-11-19T00:31:08;100752.31;;;18.74;49.94
49063;BME280;34876;51.464;-0.150;2023-11-19T00:33:38;100751.88;;;18.76;49.78
49063;BME280;34876;51.464;-0.150;2023-11-19T00:36:07;100749.64;;;18.67;49.95
49063;BME280;34876;51.464;-0.150;2023-11-19T00:38:36;100741.38;;;18.41;50.76
49063;BME280;34876;51.464;-0.150;2023-11-19T00:41:06;100740.55;;;18.73;50.05
49063;BME280;34876;51.464;-0.150;2023-11-19T00:43:35;100734.68;;;18.71;49.73
49063;BME280;34876;51.464;-0.150;2023-11-19T00:46:07;100739.52;;;18.74;49.75
49063;BME280;34876;51.464;-0.150;2023-11-19T00:48:36;100737.18;;;18.50;50.49
49063;BME280;34876;51.464;-0.150;2023-11-19T00:51:06;100735.02;;;18.66;49.62
49063;BME280;34876;51.464;-0.150;2023-11-19T00:53:36;100728.33;;;18.73;49.73
49063;BME280;34876;51.464;-0.150;2023-11-19T00:56:11;100728.31;;;18.72;49.73
49063;BME280;34876;51.464;-0.150;2023-11-19T00:58:39;100724.39;;;18.75;49.65
49063;BME280;34876;51.464;-0.150;2023-11-19T01:03:33;100727.37;;;18.74;49.80
49063;BME280;34876;51.464;-0.150;2023-11-19T01:06:04;100730.50;;;18.74;49.70
49063;BME280;34876;51.464;-0.150;2023-11-19T01:08:34;100727.19;;;18.77;49.82
49063;BME280;34876;51.464;-0.150;2023-11-19T01:11:03;100730.92;;;18.62;49.99
49063;BME280;34876;51.464;-0.150;2023-11-19T01:13:33;100720.28;;;18.70;49.92
49063;BME280;34876;51.464;-0.150;2023-11-19T01:16:03;100723.34;;;18.77;49.69
49063;BME280;34876;51.464;-0.150;2023-11-19T01:18:33;100717.29;;;18.68;50.22
49063;BME280;34876;51.464;-0.150;2023-11-19T01:21:03;100713.58;;;18.39;50.26
49063;BME280;34876;51.464;-0.150;2023-11-19T01:23:35;100712.75;;;18.71;49.80
49063;BME280;34876;51.464;-0.150;2023-11-19T01:26:04;100710.72;;;18.75;49.71
49063;BME280;34876;51.464;-0.150;2023-11-19T01:28:34;100706.57;;;18.74;49.84
49063;BME280;34876;51.464;-0.150;2023-11-19T01:31:04;100716.61;;;18.55;50.35
49063;BME280;34876;51.464;-0.150;2023-11-19T01:33:33;100711.78;;;18.76;49.73
49063;BME280;34876;51.464;-0.150;2023-11-19T01:36:03;100720.21;;;18.73;49.94
49063;BME280;34876;51.464;-0.150;2023-11-19T01:38:32;100723.95;;;18.34;50.52
49063;BME280;34876;51.464;-0.150;2023-11-19T01:41:01;100718.74;;;18.52;49.58
49063;BME280;34876;51.464;-0.150;2023-11-19T01:43:33;100716.83;;;18.35;50.89
49063;BME280;34876;51.464;-0.150;2023-11-19T01:46:02;100711.64;;;18.25;51.27
49063;BME280;34876;51.464;-0.150;2023-11-19T01:48:32;100705.55;;;18.70;49.95
49063;BME280;34876;51.464;-0.150;2023-11-19T01:51:04;100700.24;;;18.74;49.80
49063;BME280;34876;51.464;-0.150;2023-11-19T01:53:40;100698.79;;;18.80;49.76
49063;BME280;34876;51.464;-0.150;2023-11-19T01:56:13;100706.15;;;18.41;49.99
49063;BME280;34876;51.464;-0.150;2023-11-19T01:58:44;100710.24;;;18.46;50.74
49063;BME280;34876;51.464;-0.150;2023-11-19T02:01:14;100711.32;;;18.50;50.92
49063;BME280;34876;51.464;-0.150;2023-11-19T02:03:44;100718.82;;;18.12;51.53
49063;BME280;34876;51.464;-0.150;2023-11-19T02:06:15;100727.62;;;18.71;50.52
49063;BME280;34876;51.464;-0.150;2023-11-19T02:08:45;100726.90;;;18.77;50.19
49063;BME280;34876;51.464;-0.150;2023-11-19T02:11:14;100721.53;;;18.78;50.15
49063;BME280;34876;51.464;-0.150;2023-11-19T02:13:43;100717.17;;;18.82;49.81
49063;BME280;34876;51.464;-0.150;2023-11-19T02:16:13;100720.09;;;18.82;50.47
49063;BME280;34876;51.464;-0.150;2023-11-19T02:18:42;100716.75;;;18.74;50.18
49063;BME280;34876;51.464;-0.150;2023-11-19T02:21:11;100717.46;;;18.83;50.09
49063;BME280;34876;51.464;-0.150;2023-11-19T02:23:41;100710.90;;;18.82;49.78
49063;BME280;34876;51.464;-0.150;2023-11-19T02:26:25;100709.40;;;18.83;49.68
49063;BME280;34876;51.464;-0.150;2023-11-19T02:28:57;100714.75;;;18.51;48.83
49063;BME280;34876;51.464;-0.150;2023-11-19T02:31:26;100711.89;;;18.71;50.28
49063;BME280;34876;51.464;-0.150;2023-11-19T02:33:55;100713.44;;;18.75;49.97
49063;BME280;34876;51.464;-0.150;2023-11-19T02:36:24;100714.80;;;18.82;49.81
49063;BME280;34876;51.464;-0.150;2023-11-19T02:38:53;100713.37;;;18.61;50.17
49063;BME280;34876;51.464;-0.150;2023-11-19T02:41:23;100704.75;;;18.45;50.77
49063;BME280;34876;51.464;-0.150;2023-11-19T02:43:53;100704.51;;;18.77;49.95
49063;BME280;34876;51.464;-0.150;2023-11-19T02:46:21;100693.11;;;18.59;50.31
49063;BME280;34876;51.464;-0.150;2023-11-19T02:48:51;100682.24;;;18.77;49.82
49063;BME280;34876;51.464;-0.150;2023-11-19T02:51:21;100671.19;;;18.67;50.10
49063;BME280;34876;51.464;-0.150;2023-11-19T02:53:51;100665.53;;;18.66;50.12
49063;BME280;34876;51.464;-0.150;2023-11-19T02:56:19;100657.11;;;18.59;50.33
49063;BME280;34876;51.464;-0.150;2023-11-19T02:58:48;100654.30;;;18.77;49.85
49063;BME280;34876;51.464;-0.150;2023-11-19T03:01:22;100648.24;;;18.62;50.58
49063;BME280;34876;51.464;-0.150;2023-11-19T03:03:51;100654.51;;;18.72;50.14
49063;BME280;34876;51.464;-0.150;2023-11-19T03:06:25;100651.99;;;18.14;49.01
49063;BME280;34876;51.464;-0.150;2023-11-19T03:08:55;100659.13;;;18.60;50.46
49063;BME280;34876;51.464;-0.150;2023-11-19T03:11:24;100662.72;;;18.58;50.74
49063;BME280;34876;51.464;-0.150;2023-11-19T03:13:55;100653.21;;;18.64;50.28
49063;BME280;34876;51.464;-0.150;2023-11-19T03:16:25;100649.04;;;18.68;48.53
49063;BME280;34876;51.464;-0.150;2023-11-19T03:18:54;100649.53;;;18.40;50.91
49063;BME280;34876;51.464;-0.150;2023-11-19T03:21:27;100648.20;;;18.75;50.47
49063;BME280;34876;51.464;-0.150;2023-11-19T03:24:01;100649.77;;;18.80;49.91
49063;BME280;34876;51.464;-0.150;2023-11-19T03:26:31;100655.83;;;18.79;49.67
49063;BME280;34876;51.464;-0.150;2023-11-19T03:28:59;100654.80;;;18.63;50.59
49063;BME280;34876;51.464;-0.150;2023-11-19T03:31:27;100654.26;;;18.71;50.34
49063;BME280;34876;51.464;-0.150;2023-11-19T03:33:58;100657.76;;;18.38;51.14
49063;BME280;34876;51.464;-0.150;2023-11-19T03:36:32;100649.71;;;18.19;51.20
49063;BME280;34876;51.464;-0.150;2023-11-19T03:39:01;100647.68;;;18.64;49.61
49063;BME280;34876;51.464;-0.150;2023-11-19T03:41:30;100654.15;;;18.36;50.92
49063;BME280;34876;51.464;-0.150;2023-11-19T03:44:02;100652.86;;;17.97;51.92
49063;BME280;34876;51.464;-0.150;2023-11-19T03:46:32;100660.35;;;18.50;50.84
49063;BME280;34876;51.464;-0.150;2023-11-19T03:49:01;100654.68;;;18.72;50.33
49063;BME280;34876;51.464;-0.150;2023-11-19T03:51:30;100654.50;;;18.75;50.11
49063;BME280;34876;51.464;-0.150;2023-11-19T03:53:59;100658.90;;;18.12;51.22
49063;BME280;34876;51.464;-0.150;2023-11-19T03:56:29;100660.74;;;18.47;50.44
49063;BME280;34876;51.464;-0.150;2023-11-19T03:58:58;100662.64;;;17.77;52.69
49063;BME280;34876;51.464;-0.150;2023-11-19T04:01:28;100663.48;;;18.65;50.68
49063;BME280;34876;51.464;-0.150;2023-11-19T04:04:01;100662.01;;;18.78;50.08
49063;BME280;34876;51.464;-0.150;2023-11-19T04:06:29;100664.09;;;17.96;49.94
49063;BME280;34876;51.464;-0.150;2023-11-19T04:08:58;100670.89;;;18.55;51.16
49063;BME280;34876;51.464;-0.150;2023-11-19T04:11:28;100667.98;;;18.74;50.37
49063;BME280;34876;51.464;-0.150;2023-11-19T04:13:57;100675.13;;;18.25;51.75
49063;BME280;34876;51.464;-0.150;2023-11-19T04:16:26;100673.11;;;18.69;50.64
49063;BME280;34876;51.464;-0.150;2023-11-19T04:18:56;100670.84;;;18.66;50.82
49063;BME280;34876;51.464;-0.150;2023-11-19T04:21:25;100678.79;;;18.79;50.09
49063;BME280;34876;51.464;-0.150;2023-11-19T04:23:55;100674.92;;;18.45;50.51
49063;BME280;34876;51.464;-0.150;2023-11-19T04:26:24;100677.28;;;18.58;50.85
49063;BME280;34876;51.464;-0.150;2023-11-19T04:28:55;100677.71;;;18.75;50.85
49063;BME280;34876;51.464;-0.150;2023-11-19T04:31:29;100681.09;;;18.83;49.98
49063;BME280;34876;51.464;-0.150;2023-11-19T04:34:06;100674.54;;;18.78;49.95
49063;BME280;34876;51.464;-0.150;2023-11-19T04:36:36;100675.41;;;18.73;50.19
49063;BME280;34876;51.464;-0.150;2023-11-19T04:39:06;100674.96;;;18.77;50.08
49063;BME280;34876;51.464;-0.150;2023-11-19T04:41:36;100675.14;;;18.84;49.74
49063;BME280;34876;51.464;-0.150;2023-11-19T04:44:07;100671.25;;;18.70;49.59
49063;BME280;34876;51.464;-0.150;2023-11-19T04:46:43;100666.54;;;18.50;50.62
49063;BME280;34876;51.464;-0.150;2023-11-19T04:49:13;100665.10;;;18.66;48.48
49063;BME280;34876;51.464;-0.150;2023-11-19T04:51:43;100676.15;;;18.59;50.83
49063;BME280;34876;51.464;-0.150;2023-11-19T04:54:13;100684.89;;;18.31;51.01
49063;BME280;34876;51.464;-0.150;2023-11-19T04:56:46;100686.22;;;18.54;50.59
49063;BME280;34876;51.464;-0.150;2023-11-19T04:59:14;100676.83;;;18.71;50.13
49063;BME280;34876;51.464;-0.150;2023-11-19T05:02:05;100675.28;;;18.82;50.06
49063;BME280;34876;51.464;-0.150;2023-11-19T05:04:36;100673.36;;;18.71;50.32
49063;BME280;34876;51.464;-0.150;2023-11-19T05:07:09;100672.80;;;18.75;50.34
49063;BME280;34876;51.464;-0.150;2023-11-19T05:09:38;100670.71;;;18.86;50.10
49063;BME280;34876;51.464;-0.150;2023-11-19T05:12:08;100663.68;;;18.85;49.84
49063;BME280;34876;51.464;-0.150;2023-11-19T05:14:42;100656.95;;;18.63;50.32
49063;BME280;34876;51.464;-0.150;2023-11-19T05:17:11;100642.59;;;18.86;49.66
49063;BME280;34876;51.464;-0.150;2023-11-19T05:19:40;100644.55;;;18.75;49.39
49063;BME280;34876;51.464;-0.150;2023-11-19T05:22:10;100646.13;;;18.65;50.74
49063;BME280;34876;51.464;-0.150;2023-11-19T05:24:44;100641.46;;;18.80;48.71
49063;BME280;34876;51.464;-0.150;2023-11-19T05:27:17;100639.75;;;18.16;51.74
49063;BME280;34876;51.464;-0.150;2023-11-19T05:29:51;100641.05;;;18.35;50.10
49063;BME280;34876;51.464;-0.150;2023-11-19T05:32:23;100634.36;;;18.28;51.33
49063;BME280;34876;51.464;-0.150;2023-11-19T05:34:57;100643.61;;;18.49;50.97
49063;BME280;34876;51.464;-0.150;2023-11-19T05:37:27;100650.54;;;18.80;50.11
49063;BME280;34876;51.464;-0.150;2023-11-19T05:40:13;100653.12;;;18.44;49.77
49063;BME280;34876;51.464;-0.150;2023-11-19T05:42:42;100649.89;;;18.20;50.70
49063;BME280;34876;51.464;-0.150;2023-11-19T05:45:13;100647.99;;;18.74;50.24
49063;BME280;34876;51.464;-0.150;2023-11-19T05:47:43;100643.54;;;18.85;49.69
49063;BME280;34876;51.464;-0.150;2023-11-19T05:50:12;100645.93;;;18.12;49.40
49063;BME280;34876;51.464;-0.150;2023-11-19T05:52:42;100643.12;;;18.62;50.25
49063;BME280;34876;51.464;-0.150;2023-11-19T05:55:22;100634.65;;;18.85;49.80
49063;BME280;34876;51.464;-0.150;2023-11-19T05:57:51;100625.30;;;18.78;50.56
49063;BME280;34876;51.464;-0.150;2023-11-19T06:00:27;100630.51;;;18.37;51.18
49063;BME280;34876;51.464;-0.150;2023-11-19T06:03:01;100630.40;;;18.75;50.66
49063;BME280;34876;51.464;-0.150;2023-11-19T06:05:32;100639.09;;;18.73;50.60
49063;BME280;34876;51.464;-0.150;2023-11-19T06:08:02;100637.23;;;18.77;50.48
49063;BME280;34876;51.464;-0.150;2023-11-19T06:10:32;100648.40;;;18.87;50.07
49063;BME280;34876;51.464;-0.150;2023-11-19T06:13:01;100655.15;;;18.88;50.32
49063;BME280;34876;51.464;-0.150;2023-11-19T06:15:30;100661.23;;;18.90;49.91
49063;BME280;34876;51.464;-0.150;2023-11-19T06:18:05;100669.45;;;18.32;51.84
49063;BME280;34876;51.464;-0.150;2023-11-19T06:20:35;100666.06;;;18.85;50.12
49063;BME280;34876;51.464;-0.150;2023-11-19T06:23:05;100665.70;;;18.92;50.33
49063;BME280;34876;51.464;-0.150;2023-11-19T06:25:35;100656.73;;;18.96;49.97
49063;BME280;34876;51.464;-0.150;2023-11-19T06:28:17;100646.95;;;18.83;51.02
49063;BME280;34876;51.464;-0.150;2023-11-19T06:30:51;100658.15;;;18.79;51.03
49063;BME280;34876;51.464;-0.150;2023-11-19T06:33:24;100650.10;;;18.91;49.98
49063;BME280;34876;51.464;-0.150;2023-11-19T06:35:53;100646.84;;;18.90;49.95
49063;BME280;34876;51.464;-0.150;2023-11-19T06:38:23;100643.96;;;18.95;49.44
49063;BME280;34876;51.464;-0.150;2023-11-19T06:40:57;100642.93;;;18.93;49.63
49063;BME280;34876;51.464;-0.150;2023-11-19T06:43:27;100646.28;;;18.81;49.91
49063;BME280;34876;51.464;-0.150;2023-11-19T06:45:56;100656.03;;;18.84;50.31
49063;BME280;34876;51.464;-0.150;2023-11-19T06:48:32;100653.29;;;18.71;50.58
49063;BME280;34876;51.464;-0.150;2023-11-19T06:51:05;100654.62;;;18.80;50.41
49063;BME280;34876;51.464;-0.150;2023-11-19T06:53:34;100651.27;;;18.92;49.66
49063;BME280;34876;51.464;-0.150;2023-11-19T06:56:18;100653.64;;;18.94;49.52
49063;BME280;34876;51.464;-0.150;2023-11-19T06:58:47;100654.77;;;18.70;49.97
49063;BME280;34876;51.464;-0.150;2023-11-19T07:01:18;100657.47;;;18.77;49.76
49063;BME280;34876;51.464;-0.150;2023-11-19T07:03:48;100663.54;;;18.82;49.82
49063;BME280;34876;51.464;-0.150;2023-11-19T07:06:17;100662.73;;;18.80;50.38
49063;BME280;34876;51.464;-0.150;2023-11-19T07:08:47;100660.86;;;18.87;49.58
49063;BME280;34876;51.464;-0.150;2023-11-19T07:11:21;100658.18;;;18.77;49.70
49063;BME280;34876;51.464;-0.150;2023-11-19T07:13:55;100660.14;;;18.88;49.45
49063;BME280;34876;51.464;-0.150;2023-11-19T07:16:24;100658.12;;;18.90;49.50
49063;BME280;34876;51.464;-0.150;2023-11-19T07:18:53;100654.10;;;18.90;49.14
49063;BME280;34876;51.464;-0.150;2023-11-19T07:21:22;100649.47;;;18.92;49.45
49063;BME280;34876;51.464;-0.150;2023-11-19T07:23:51;100657.57;;;18.93;48.97
49063;BME280;34876;51.464;-0.150;2023-11-19T07:26:21;100656.59;;;18.94;48.94
49063;BME280;34876;51.464;-0.150;2023-11-19T07:28:50;100656.36;;;18.81;49.28
49063;BME280;34876;51.464;-0.150;2023-11-19T07:31:19;100660.10;;;18.67;49.74
49063;BME280;34876;51.464;-0.150;2023-11-19T07:33:48;100665.87;;;18.90;49.03
49063;BME280;34876;51.464;-0.150;2023-11-19T07:36:18;100666.40;;;18.92;48.84
49063;BME280;34876;51.464;-0.150;2023-11-19T07:38:47;100669.87;;;18.74;49.45
49063;BME280;34876;51.464;-0.150;2023-11-19T07:41:17;100667.01;;;18.73;49.33
49063;BME280;34876;51.464;-0.150;2023-11-19T07:43:49;100671.16;;;18.87;48.91
49063;BME280;34876;51.464;-0.150;2023-11-19T07:46:19;100677.16;;;18.74;49.85
49063;BME280;34876;51.464;-0.150;2023-11-19T07:48:48;100675.38;;;18.58;49.77
49063;BME280;34876;51.464;-0.150;2023-11-19T07:51:18;100675.39;;;18.88;48.91
49063;BME280;34876;51.464;-0.150;2023-11-19T07:53:48;100680.84;;;18.93;48.78
49063;BME280;34876;51.464;-0.150;2023-11-19T07:56:17;100677.05;;;18.81;49.09
49063;BME280;34876;51.464;-0.150;2023-11-19T07:58:52;100683.04;;;18.83;48.99
49063;BME280;34876;51.464;-0.150;2023-11-19T08:01:22;100688.40;;;18.89;49.05
49063;BME280;34876;51.464;-0.150;2023-11-19T08:03:52;100686.55;;;18.95;49.28
49063;BME280;34876;51.464;-0.150;2023-11-19T08:06:22;100693.89;;;18.80;49.36
49063;BME280;34876;51.464;-0.150;2023-11-19T08:08:55;100694.22;;;18.93;49.04
49063;BME280;34876;51.464;-0.150;2023-11-19T08:11:24;100691.74;;;18.82;45.72
49063;BME280;34876;51.464;-0.150;2023-11-19T08:13:54;100688.65;;;18.74;47.18
49063;BME280;34876;51.464;-0.150;2023-11-19T08:16:23;100690.08;;;18.74;49.18
49063;BME280;34876;51.464;-0.150;2023-11-19T08:18:53;100686.87;;;18.85;46.85
49063;BME280;34876;51.464;-0.150;2023-11-19T08:21:23;100687.06;;;19.00;48.87
49063;BME280;34876;51.464;-0.150;2023-11-19T08:23:53;100683.62;;;18.82;49.67
49063;BME280;34876;51.464;-0.150;2023-11-19T08:26:24;100678.52;;;18.91;49.31
49063;BME280;34876;51.464;-0.150;2023-11-19T08:28:53;100676.15;;;18.87;49.46
49063;BME280;34876;51.464;-0.150;2023-11-19T08:31:38;100663.74;;;19.01;48.89
49063;BME280;34876;51.464;-0.150;2023-11-19T08:34:07;100677.58;;;18.22;50.85
49063;BME280;34876;51.464;-0.150;2023-11-19T08:36:36;100683.03;;;18.84;49.24
49063;BME280;34876;51.464;-0.150;2023-11-19T08:39:05;100691.44;;;18.82;49.40
49063;BME280;34876;51.464;-0.150;2023-11-19T08:41:35;100693.46;;;18.77;48.17
49063;BME280;34876;51.464;-0.150;2023-11-19T08:44:04;100693.77;;;18.91;49.53
49063;BME280;34876;51.464;-0.150;2023-11-19T08:46:34;100688.50;;;18.76;49.84
49063;BME280;34876;51.464;-0.150;2023-11-19T08:49:17;100691.07;;;18.78;50.08
49063;BME280;34876;51.464;-0.150;2023-11-19T08:51:46;100703.23;;;18.45;50.50
49063;BME280;34876;51.464;-0.150;2023-11-19T08:54:15;100698.49;;;18.97;49.65
49063;BME280;34876;51.464;-0.150;2023-11-19T08:56:44;100698.19;;;18.86;49.82
49063;BME280;34876;51.464;-0.150;2023-11-19T08:59:14;100694.60;;;18.41;48.62
49063;BME280;34876;51.464;-0.150;2023-11-19T09:01:44;100692.75;;;18.22;50.57
49063;BME280;34876;51.464;-0.150;2023-11-19T09:04:15;100700.40;;;18.31;51.05
49063;BME280;34876;51.464;-0.150;2023-11-19T09:06:43;100690.11;;;18.83;49.99
49063;BME280;34876;51.464;-0.150;2023-11-19T09:09:12;100686.25;;;19.02;48.98
49063;BME280;34876;51.464;-0.150;2023-11-19T09:11:42;100688.53;;;18.85;50.23
49063;BME280;34876;51.464;-0.150;2023-11-19T09:14:12;100689.96;;;18.89;47.74
49063;BME280;34876;51.464;-0.150;2023-11-19T09:16:41;100696.08;;;18.88;49.58
49063;BME280;34876;51.464;-0.150;2023-11-19T09:19:11;100690.42;;;18.78;49.91
49063;BME280;34876;51.464;-0.150;2023-11-19T09:22:02;100683.50;;;18.92;49.70
49063;BME280;34876;51.464;-0.150;2023-11-19T09:24:41;100684.48;;;18.49;50.55
49063;BME280;34876;51.464;-0.150;2023-11-19T09:27:11;100684.74;;;18.71;48.65
49063;BME280;34876;51.464;-0.150;2023-11-19T09:29:40;100681.73;;;18.70;49.38
49063;BME280;34876;51.464;-0.150;2023-11-19T09:32:09;100685.68;;;18.67;50.55
49063;BME280;34876;51.464;-0.150;2023-11-19T09:34:40;100686.95;;;18.72;50.50
49063;BME280;34876;51.464;-0.150;2023-11-19T09:37:10;100686.67;;;18.88;50.98
49063;BME280;34876;51.464;-0.150;2023-11-19T09:39:40;100680.60;;;18.95;49.97
49063;BME280;34876;51.464;-0.150;2023-11-19T09:42:09;100692.36;;;18.80;50.51
49063;BME280;34876;51.464;-0.150;2023-11-19T09:44:42;100702.61;;;19.03;49.99
49063;BME280;34876;51.464;-0.150;2023-11-19T09:47:13;100707.07;;;19.03;50.49
49063;BME280;34876;51.464;-0.150;2023-11-19T09:49:43;100708.75;;;19.11;49.50
49063;BME280;34876;51.464;-0.150;2023-11-19T09:52:12;100703.27;;;18.95;50.24
49063;BME280;34876;51.464;-0.150;2023-11-19T09:54:42;100708.38;;;19.14;49.25
49063;BME280;34876;51.464;-0.150;2023-11-19T09:57:30;100690.90;;;19.14;49.13
49063;BME280;34876;51.464;-0.150;2023-11-19T10:00:07;100684.17;;;19.17;49.37
49063;BME280;34876;51.464;-0.150;2023-11-19T10:02:37;100682.63;;;19.33;48.67
49063;BME280;34876;51.464;-0.150;2023-11-19T10:05:10;100680.20;;;19.36;48.48
49063;BME280;34876;51.464;-0.150;2023-11-19T10:07:39;100674.32;;;19.35;48.49
49063;BME280;34876;51.464;-0.150;2023-11-19T10:10:08;100672.63;;;19.35;48.50
49063;BME280;34876;51.464;-0.150;2023-11-19T10:12:40;100673.62;;;19.05;49.16
49063;BME280;34876;51.464;-0.150;2023-11-19T10:15:17;100671.97;;;19.20;49.16
49063;BME280;34876;51.464;-0.150;2023-11-19T10:17:49;100673.89;;;19.23;48.92
49063;BME280;34876;51.464;-0.150;2023-11-19T10:20:18;100671.75;;;19.12;49.04
49063;BME280;34876;51.464;-0.150;2023-11-19T10:22:53;100675.65;;;19.26;48.68
49063;BME280;34876;51.464;-0.150;2023-11-19T10:25:28;100667.40;;;19.25;48.76
49063;BME280;34876;51.464;-0.150;2023-11-19T10:28:15;100663.14;;;19.09;49.50
49063;BME280;34876;51.464;-0.150;2023-11-19T10:30:44;100665.31;;;18.82;46.96
49063;BME280;34876;51.464;-0.150;2023-11-19T10:33:13;100669.93;;;18.91;49.63
49063;BME280;34876;51.464;-0.150;2023-11-19T10:35:59;100670.45;;;18.88;49.96
49063;BME280;34876;51.464;-0.150;2023-11-19T10:38:27;100666.83;;;19.13;49.45
49063;BME280;34876;51.464;-0.150;2023-11-19T10:40:57;100669.25;;;19.19;49.52
49063;BME280;34876;51.464;-0.150;2023-11-19T10:43:26;100667.13;;;18.86;49.78
49063;BME280;34876;51.464;-0.150;2023-11-19T10:46:09;100668.88;;;19.06;49.78
49063;BME280;34876;51.464;-0.150;2023-11-19T10:48:39;100667.41;;;19.13;49.12
49063;BME280;34876;51.464;-0.150;2023-11-19T10:51:08;100671.16;;;19.23;49.24
49063;BME280;34876;51.464;-0.150;2023-11-19T10:53:44;100666.78;;;19.12;49.91
49063;BME280;34876;51.464;-0.150;2023-11-19T10:56:16;100670.02;;;19.08;50.04
49063;BME280;34876;51.464;-0.150;2023-11-19T10:58:45;100666.06;;;19.24;49.37
49063;BME280;34876;51.464;-0.150;2023-11-19T11:01:18;100659.68;;;19.18;49.66
49063;BME280;34876;51.464;-0.150;2023-11-19T11:03:51;100667.15;;;19.05;49.59
49063;BME280;34876;51.464;-0.150;2023-11-19T11:06:22;100659.69;;;18.95;50.54
49063;BME280;34876;51.464;-0.150;2023-11-19T11:08:54;100660.89;;;18.92;51.01
49063;BME280;34876;51.464;-0.150;2023-11-19T11:11:24;100663.75;;;19.09;46.38
49063;BME280;34876;51.464;-0.150;2023-11-19T11:13:53;100663.31;;;18.74;50.69
49063;BME280;34876;51.464;-0.150;2023-11-19T11:16:29;100671.74;;;18.97;51.49
49063;BME280;34876;51.464;-0.150;2023-11-19T11:18:59;100672.63;;;19.08;50.74
49063;BME280;34876;51.464;-0.150;2023-11-19T11:21:29;100666.39;;;19.09;49.07
49063;BME280;34876;51.464;-0.150;2023-11-19T11:24:20;100668.12;;;18.71;52.43
49063;BME280;34876;51.464;-0.150;2023-11-19T11:27:11;100654.27;;;18.77;51.49
49063;BME280;34876;51.464;-0.150;2023-11-19T11:29:51;100645.25;;;18.58;51.00
49063;BME280;34876;51.464;-0.150;2023-11-19T11:32:33;100649.97;;;18.32;51.12
49063;BME280;34876;51.464;-0.150;2023-11-19T11:35:17;100646.91;;;18.74;50.63
49063;BME280;34876;51.464;-0.150;2023-11-19T11:37:55;100650.50;;;18.77;50.38
49063;BME280;34876;51.464;-0.150;2023-11-19T11:40:29;100645.57;;;18.92;50.29
49063;BME280;34876;51.464;-0.150;2023-11-19T11:42:59;100658.63;;;18.52;51.56
49063;BME280;34876;51.464;-0.150;2023-11-19T11:45:38;100643.51;;;18.61;47.84
49063;BME280;34876;51.464;-0.150;2023-11-19T11:48:11;100645.04;;;18.56;50.37
49063;BME280;34876;51.464;-0.150;2023-11-19T11:50:51;100640.64;;;18.46;50.40
49063;BME280;34876;51.464;-0.150;2023-11-19T11:53:22;100622.27;;;18.95;49.70
49063;BME280;34876;51.464;-0.150;2023-11-19T11:55:55;100619.74;;;18.80;50.49
49063;BME280;34876;51.464;-0.150;2023-11-19T11:58:28;100623.34;;;18.63;50.71
49063;BME280;34876;51.464;-0.150;2023-11-19T12:01:01;100615.29;;;18.79;47.30
49063;BME280;34876;51.464;-0.150;2023-11-19T12:03:32;100612.17;;;18.22;51.66
49063;BME280;34876;51.464;-0.150;2023-11-19T12:06:02;100619.23;;;18.46;48.88
49063;BME280;34876;51.464;-0.150;2023-11-19T12:08:34;100613.77;;;18.36;51.38
49063;BME280;34876;51.464;-0.150;2023-11-19T12:11:05;100610.39;;;18.52;50.59
49063;BME280;34876;51.464;-0.150;2023-11-19T12:13:55;100606.99;;;18.60;49.71
49063;BME280;34876;51.464;-0.150;2023-11-19T12:16:25;100609.77;;;18.62;50.31
49063;BME280;34876;51.464;-0.150;2023-11-19T12:18:56;100602.57;;;18.52;50.43
49063;BME280;34876;51.464;-0.150;2023-11-19T12:21:28;100607.37;;;18.02;52.02
49063;BME280;34876;51.464;-0.150;2023-11-19T12:23:58;100604.79;;;18.85;50.32
49063;BME280;34876;51.464;-0.150;2023-11-19T12:26:37;100616.36;;;19.00;49.67
49063;BME280;34876;51.464;-0.150;2023-11-19T12:29:07;100603.90;;;18.74;50.45
49063;BME280;34876;51.464;-0.150;2023-11-19T12:31:36;100603.26;;;18.72;50.06
49063;BME280;34876;51.464;-0.150;2023-11-19T12:34:08;100597.36;;;18.31;51.14
49063;BME280;34876;51.464;-0.150;2023-11-19T12:36:40;100595.47;;;18.63;50.43
49063;BME280;34876;51.464;-0.150;2023-11-19T12:39:15;100586.56;;;18.41;50.87
49063;BME280;34876;51.464;-0.150;2023-11-19T12:41:53;100593.17;;;18.70;48.22
49063;BME280;34876;51.464;-0.150;2023-11-19T12:44:27;100592.46;;;18.09;51.52
49063;BME280;34876;51.464;-0.150;2023-11-19T12:47:04;100587.93;;;18.44;50.78
49063;BME280;34876;51.464;-0.150;2023-11-19T12:49:34;100580.36;;;18.73;49.94
49063;BME280;34876;51.464;-0.150;2023-11-19T12:52:13;100573.08;;;18.62;49.90
49063;BME280;34876;51.464;-0.150;2023-11-19T12:54:47;100577.91;;;18.89;48.65
49063;BME280;34876;51.464;-0.150;2023-11-19T12:57:17;100566.74;;;18.71;48.06
49063;BME280;34876;51.464;-0.150;2023-11-19T12:59:55;100570.80;;;18.27;50.79
49063;BME280;34876;51.464;-0.150;2023-11-19T13:02:44;100569.90;;;18.87;50.13
49063;BME280;34876;51.464;-0.150;2023-11-19T13:05:24;100559.97;;;18.62;48.74